Time;durP1;ratioP1;P1;durP2;ratioP2;P2;SDS_P1;SDS_P2;PMS_P1;PMS_P2;Temp;Humidity;BMP_temperature;BMP_pressure;BME280_temperature;BME280_humidity;BME280_pressure;Samples;Min_cycle;Max_cycle;Signal;HPM_P1;HPM_P2
2024/03/21 00:00:40;;;;;;;33.05;22.15;;;;;;;10.52;100.00;69566.41;5053666;28;20056;-49
2024/03/21 00:03:08;;;;;;;36.83;23.40;;;;;;;10.51;100.00;69567.84;5070148;28;20060;-50
2024/03/21 00:05:35;;;;;;;33.63;21.83;;;;;;;10.48;100.00;69564.94;5066388;28;20384;-49
2024/03/21 00:08:03;;;;;;;35.28;22.90;;;;;;;10.48;100.00;69565.53;5067727;28;20741;-48
2024/03/21 00:10:29;;;;;;;34.47;21.33;;;;;;;10.49;100.00;69566.09;5070306;28;20044;-48
2024/03/21 00:12:56;;;;;;;35.70;23.48;;;;;;;10.47;100.00;69568.97;5070314;28;20048;-48
2024/03/21 00:15:23;;;;;;;35.65;23.15;;;;;;;10.44;100.00;69560.25;5070167;28;20051;-49
2024/03/21 00:17:50;;;;;;;34.13;22.95;;;;;;;10.41;100.00;69551.53;5070212;28;20047;-53
2024/03/21 00:20:17;;;;;;;34.30;22.33;;;;;;;10.40;100.00;69555.59;5068184;28;20067;-53
2024/03/21 00:22:46;;;;;;;34.63;23.35;;;;;;;10.42;100.00;69557.94;5066577;28;20036;-52
2024/03/21 00:25:13;;;;;;;35.85;23.23;;;;;;;10.37;100.00;69549.47;5051893;28;20483;-52
2024/03/21 00:27:43;;;;;;;36.05;24.20;;;;;;;10.34;100.00;69551.19;5070051;28;20028;-49
2024/03/21 00:30:10;;;;;;;35.38;23.65;;;;;;;10.29;100.00;69541.31;5070246;28;20052;-50
2024/03/21 00:32:37;;;;;;;36.35;23.27;;;;;;;10.28;100.00;69542.75;5053133;28;20400;-52
2024/03/21 00:35:04;;;;;;;34.97;24.05;;;;;;;10.26;100.00;69535.19;5070059;28;20127;-52
2024/03/21 00:37:31;;;;;;;36.35;24.25;;;;;;;10.28;100.00;69540.13;5069872;28;20048;-51
2024/03/21 00:39:58;;;;;;;34.47;23.08;;;;;;;10.25;100.00;69539.25;5053754;28;20052;-53
2024/03/21 00:42:26;;;;;;;36.20;24.50;;;;;;;10.23;100.00;69533.72;5071726;28;20036;-53
2024/03/21 00:44:53;;;;;;;38.67;23.80;;;;;;;10.21;100.00;69531.38;5070915;28;20055;-54
2024/03/21 00:47:20;;;;;;;35.47;23.08;;;;;;;10.20;100.00;69532.81;5070944;28;20040;-52
2024/03/21 00:49:46;;;;;;;36.33;24.27;;;;;;;10.17;100.00;69529.31;5070476;28;20451;-52
2024/03/21 00:52:13;;;;;;;39.28;25.30;;;;;;;10.14;100.00;69527.00;5055041;28;20487;-53
2024/03/21 00:54:41;;;;;;;33.92;23.75;;;;;;;10.15;100.00;69522.34;5073803;28;20040;-52
2024/03/21 00:57:10;;;;;;;37.17;24.02;;;;;;;10.16;100.00;69528.75;5073697;28;20565;-51
2024/03/21 00:59:36;;;;;;;35.35;23.27;;;;;;;10.14;100.00;69527.00;5087939;28;20807;-53
2024/03/21 01:02:03;;;;;;;40.13;25.05;;;;;;;10.12;100.00;69524.66;5071047;28;20037;-52
2024/03/21 01:04:29;;;;;;;37.15;24.58;;;;;;;10.13;100.00;69520.03;5071783;28;20127;-51
2024/03/21 01:06:57;;;;;;;33.83;23.58;;;;;;;10.12;100.00;69526.69;5069342;28;20044;-50
2024/03/21 01:09:23;;;;;;;36.20;24.30;;;;;;;10.13;100.00;69525.25;5073207;28;20045;-53
2024/03/21 01:11:52;;;;;;;38.00;23.88;;;;;;;10.11;100.00;69522.91;5056625;28;20048;-52
2024/03/21 01:14:19;;;;;;;38.90;24.20;;;;;;;10.13;100.00;69522.63;5053682;28;20503;-51
2024/03/21 01:16:46;;;;;;;38.35;24.95;;;;;;;10.11;100.00;69522.91;5071160;28;20052;-52
2024/03/21 01:19:13;;;;;;;43.20;25.33;;;;;;;10.08;100.00;69519.41;5073470;28;20055;-52
2024/03/21 01:21:40;;;;;;;40.55;25.45;;;;;;;10.07;100.00;69516.19;5070736;28;20315;-53
2024/03/21 01:24:06;;;;;;;44.30;27.20;;;;;;;10.06;100.00;69520.25;5070163;28;20051;-51
2024/03/21 01:26:33;;;;;;;42.42;27.70;;;;;;;10.05;100.00;69513.28;5070504;28;20048;-51
2024/03/21 01:29:00;;;;;;;41.10;26.92;;;;;;;10.07;100.00;69518.22;5070073;28;20078;-52
2024/03/21 01:31:28;;;;;;;44.42;27.85;;;;;;;10.09;100.00;69515.94;5069899;28;20139;-54
2024/03/21 01:33:54;;;;;;;40.38;26.17;;;;;;;10.14;100.00;69526.38;5071408;28;20059;-51
2024/03/21 01:36:22;;;;;;;42.22;27.08;;;;;;;10.11;100.00;69520.28;5056367;28;20045;-52
2024/03/21 01:38:49;;;;;;;39.45;25.92;;;;;;;10.09;100.00;69523.16;5073052;28;20045;-52
2024/03/21 01:41:16;;;;;;;38.88;26.08;;;;;;;10.09;100.00;69528.97;5070046;28;20100;-53
2024/03/21 01:43:42;;;;;;;46.42;28.48;;;;;;;10.14;100.00;69523.78;5070711;28;20055;-52
2024/03/21 01:46:18;;;;;;;41.85;27.90;;;;;;;10.11;100.00;69522.91;5072974;28;20073;-52
2024/03/21 01:48:48;;;;;;;43.17;27.63;;;;;;;10.09;100.00;69520.56;5072779;28;20079;-53
2024/03/21 01:51:18;;;;;;;42.00;27.20;;;;;;;10.05;100.00;69510.66;5072654;28;20047;-53
2024/03/21 01:53:47;;;;;;;41.45;28.65;;;;;;;10.05;100.00;69515.88;5069342;28;20045;-52
2024/03/21 01:56:14;;;;;;;44.33;28.40;;;;;;;10.01;100.00;69506.00;5070636;28;20123;-52
2024/03/21 01:58:41;;;;;;;43.75;27.38;;;;;;;10.03;100.00;69510.97;5072837;28;20522;-53
2024/03/21 02:01:20;;;;;;;42.88;27.52;;;;;;;9.99;100.00;69509.47;5072596;28;20053;-51
2024/03/21 02:03:50;;;;;;;43.95;27.05;;;;;;;9.97;100.00;69502.50;5070310;28;20136;-53
2024/03/21 02:06:16;;;;;;;41.70;26.65;;;;;;;9.95;100.00;69505.41;5051650;28;20071;-49
2024/03/21 02:08:43;;;;;;;39.70;26.00;;;;;;;9.96;100.00;69505.97;5071911;28;20044;-50
2024/03/21 02:11:11;;;;;;;42.53;28.45;;;;;;;9.95;100.00;69508.00;5069377;28;20044;-49
2024/03/21 02:13:38;;;;;;;41.15;28.13;;;;;;;9.94;100.00;69503.66;5069559;28;20040;-53
2024/03/21 02:16:04;;;;;;;43.72;27.40;;;;;;;9.91;100.00;69497.53;5070666;28;20036;-52
2024/03/21 02:18:31;;;;;;;43.92;28.52;;;;;;;9.87;100.00;69496.06;5071732;28;20097;-53
2024/03/21 02:20:59;;;;;;;45.63;28.60;;;;;;;9.82;100.00;69487.63;5067768;28;20131;-53
2024/03/21 02:23:27;;;;;;;40.90;27.25;;;;;;;9.79;100.00;69487.31;5069053;28;20037;-51
2024/03/21 02:25:57;;;;;;;40.30;26.88;;;;;;;9.77;100.00;69484.97;5070303;28;20047;-50
2024/03/21 02:28:24;;;;;;;42.30;27.63;;;;;;;9.77;100.00;69481.78;5072181;28;20389;-53
2024/03/21 02:30:52;;;;;;;41.97;27.55;;;;;;;9.75;100.00;69482.66;5072103;28;20036;-51
2024/03/21 02:33:19;;;;;;;38.65;26.63;;;;;;;9.76;100.00;69483.81;5071987;28;20037;-53
2024/03/21 02:35:48;;;;;;;43.10;27.38;;;;;;;9.72;100.00;69481.75;5070790;28;20353;-50
2024/03/21 02:38:15;;;;;;;45.50;28.80;;;;;;;9.70;100.00;69476.81;5068615;28;20040;-54
2024/03/21 02:40:42;;;;;;;42.65;28.17;;;;;;;9.68;100.00;69473.91;5053782;28;20406;-51
2024/03/21 02:43:10;;;;;;;44.03;28.73;;;;;;;9.69;100.00;69475.63;5069604;28;20040;-51
2024/03/21 02:45:36;;;;;;;43.63;30.08;;;;;;;9.69;100.00;69477.69;5068348;28;20059;-51
2024/03/21 02:48:03;;;;;;;42.53;29.33;;;;;;;9.71;100.00;69478.00;5068218;28;20438;-52
2024/03/21 02:50:30;;;;;;;44.65;28.90;;;;;;;9.69;100.00;69469.84;5069022;28;20055;-50
2024/03/21 02:52:57;;;;;;;42.40;29.08;;;;;;;9.70;100.00;69476.25;5071453;28;20040;-51
2024/03/21 02:55:23;;;;;;;40.78;27.27;;;;;;;9.68;100.00;69471.28;5071494;28;20053;-50
2024/03/21 02:57:51;;;;;;;39.60;27.15;;;;;;;9.68;100.00;69473.91;5071589;28;20407;-53
2024/03/21 03:00:20;;;;;;;42.92;27.08;;;;;;;9.67;100.00;69475.34;5055090;28;20048;-50
2024/03/21 03:02:48;;;;;;;38.05;26.23;;;;;;;9.68;100.00;69473.91;5070546;28;20064;-52
2024/03/21 03:05:16;;;;;;;39.80;28.08;;;;;;;9.69;100.00;69470.44;5052426;28;20510;-52
2024/03/21 03:07:45;;;;;;;39.30;26.83;;;;;;;9.69;100.00;69472.47;5068143;28;20055;-52
2024/03/21 03:10:12;;;;;;;37.65;24.42;;;;;;;9.70;100.00;69471.03;5068264;28;20530;-53
2024/03/21 03:12:39;;;;;;;39.63;26.33;;;;;;;9.69;100.00;69472.47;5068177;28;20419;-53
2024/03/21 03:15:07;;;;;;;38.92;25.08;;;;;;;9.71;100.00;69477.41;5067863;28;20040;-54
2024/03/21 03:17:34;;;;;;;40.40;25.50;;;;;;;9.72;100.00;69483.78;5068150;28;20454;-50
2024/03/21 03:20:00;;;;;;;41.38;25.75;;;;;;;9.72;100.00;69478.56;5066848;28;20048;-53
2024/03/21 03:22:27;;;;;;;37.45;24.23;;;;;;;9.72;100.00;69475.97;5067482;28;20048;-51
2024/03/21 03:24:54;;;;;;;37.22;25.55;;;;;;;9.71;100.00;69478.00;5069861;28;20060;-49
2024/03/21 03:27:21;;;;;;;38.28;26.10;;;;;;;9.68;100.00;69474.50;5068506;28;20037;-51
2024/03/21 03:29:47;;;;;;;37.58;25.95;;;;;;;9.69;100.00;69475.06;5068552;28;20089;-52
2024/03/21 03:32:16;;;;;;;40.05;27.00;;;;;;;9.67;100.00;69472.72;5069689;28;20154;-49
2024/03/21 03:37:27;;;;;;;37.97;25.75;;;;;;;9.69;100.00;69472.47;5069652;28;20044;-51
2024/03/21 03:39:54;;;;;;;41.08;26.00;;;;;;;9.67;100.00;69475.94;5070722;28;20052;-51
2024/03/21 03:42:21;;;;;;;36.33;25.80;;;;;;;9.66;100.00;69471.56;5070695;28;20045;-53
2024/03/21 03:44:49;;;;;;;40.03;26.83;;;;;;;9.60;100.00;69463.13;5070681;28;20067;-52
2024/03/21 03:47:17;;;;;;;38.35;25.70;;;;;;;9.62;100.00;69468.06;5068813;28;20050;-50
2024/03/21 03:49:43;;;;;;;39.72;26.27;;;;;;;9.57;100.00;69462.25;5067500;28;20083;-50
2024/03/21 03:52:10;;;;;;;36.55;25.48;;;;;;;9.52;100.00;69458.44;5069017;28;20048;-51
2024/03/21 03:54:37;;;;;;;38.20;26.13;;;;;;;9.53;100.00;69456.97;5069666;28;20662;-50
2024/03/21 03:57:05;;;;;;;36.40;24.75;;;;;;;9.46;100.00;69449.41;5066790;28;20052;-52
2024/03/21 03:59:31;;;;;;;33.45;24.45;;;;;;;9.43;100.00;69445.91;5067443;28;20432;-51
2024/03/21 04:01:58;;;;;;;37.10;25.10;;;;;;;9.40;100.00;69443.00;5050514;28;20055;-51
2024/03/21 04:04:26;;;;;;;32.83;24.48;;;;;;;9.41;100.00;69443.59;5066836;28;20053;-52
2024/03/21 04:06:56;;;;;;;36.25;25.25;;;;;;;9.37;100.00;69438.94;5053066;28;20105;-52
2024/03/21 04:09:22;;;;;;;36.20;26.15;;;;;;;9.37;100.00;69436.91;5070273;28;20438;-52
2024/03/21 04:11:50;;;;;;;38.83;25.40;;;;;;;9.37;100.00;69438.94;5070236;28;20059;-50
2024/03/21 04:14:16;;;;;;;38.05;25.83;;;;;;;9.39;100.00;69441.25;5070180;28;20028;-51
2024/03/21 04:16:43;;;;;;;34.70;25.48;;;;;;;9.39;100.00;69438.63;5070364;28;20499;-52
2024/03/21 04:19:09;;;;;;;34.85;25.58;;;;;;;9.38;100.00;69438.06;5070167;28;20043;-50
2024/03/21 04:21:37;;;;;;;35.88;25.65;;;;;;;9.42;100.00;69442.72;5070015;28;20074;-52
2024/03/21 04:24:04;;;;;;;37.30;25.55;;;;;;;9.40;100.00;69440.38;5069713;28;20044;-51
2024/03/21 04:26:31;;;;;;;35.80;24.77;;;;;;;9.39;100.00;69441.81;5070038;28;20044;-53
2024/03/21 04:28:57;;;;;;;34.35;25.70;;;;;;;9.40;100.00;69443.00;5051288;28;20051;-53
2024/03/21 04:31:24;;;;;;;34.33;25.20;;;;;;;9.40;100.00;69437.78;5067280;28;20048;-52
2024/03/21 04:33:50;;;;;;;34.15;23.48;;;;;;;9.39;100.00;69441.81;5066875;28;20041;-51
2024/03/21 04:36:17;;;;;;;30.10;21.90;;;;;;;9.42;100.00;69447.34;5069778;28;20450;-51
2024/03/21 04:38:46;;;;;;;28.15;19.38;;;;;;;9.39;100.00;69438.63;5053134;28;20072;-50
2024/03/21 04:41:13;;;;;;;28.27;19.70;;;;;;;9.42;100.00;69442.13;5069829;28;20491;-49
2024/03/21 04:43:40;;;;;;;26.83;17.83;;;;;;;9.41;100.00;69441.56;5069588;28;20032;-50
2024/03/21 04:46:07;;;;;;;24.77;17.40;;;;;;;9.40;100.00;69442.41;5067548;28;20047;-53
2024/03/21 04:48:34;;;;;;;24.60;15.32;;;;;;;9.40;100.00;69439.81;5066706;28;20053;-50
2024/03/21 04:51:01;;;;;;;19.35;13.60;;;;;;;9.44;100.00;69450.25;5069966;28;20098;-52
2024/03/21 04:53:29;;;;;;;19.10;11.20;;;;;;;9.39;100.00;69438.63;5068442;28;20097;-53
2024/03/21 04:55:57;;;;;;;17.33;10.00;;;;;;;9.38;100.00;69440.06;5066638;28;20049;-53
2024/03/21 04:58:23;;;;;;;14.32;8.68;;;;;;;9.36;100.00;69442.97;5068813;28;20495;-51
2024/03/21 05:00:51;;;;;;;11.60;7.57;;;;;;;9.32;100.00;69436.28;5069618;28;20089;-50
2024/03/21 05:03:17;;;;;;;9.73;6.00;;;;;;;9.25;100.00;69426.09;5069060;28;20040;-53
2024/03/21 05:05:44;;;;;;;10.10;5.00;;;;;;;9.18;100.00;69417.34;5065846;28;20082;-52
2024/03/21 05:08:10;;;;;;;9.75;5.40;;;;;;;9.11;100.00;69410.34;5066492;28;20051;-51
2024/03/21 05:10:37;;;;;;;10.35;5.68;;;;;;;9.05;100.00;69403.38;5068300;28;20044;-52
2024/03/21 05:13:05;;;;;;;9.93;5.57;;;;;;;8.97;100.00;69391.41;5086017;28;20070;-51
2024/03/21 05:15:32;;;;;;;8.27;4.80;;;;;;;8.95;100.00;69391.69;5089076;28;20466;-52
2024/03/21 05:17:58;;;;;;;10.25;4.75;;;;;;;8.95;100.00;69389.09;5089920;28;20055;-50
2024/03/21 05:20:27;;;;;;;8.20;4.53;;;;;;;8.83;100.00;69378.28;5089603;28;20055;-50
2024/03/21 05:22:58;;;;;;;8.30;4.07;;;;;;;8.75;100.00;69368.97;5087872;28;20052;-52
2024/03/21 05:25:25;;;;;;;8.00;4.30;;;;;;;8.69;100.00;69362.56;5086831;28;20059;-52
2024/03/21 05:27:51;;;;;;;6.72;3.90;;;;;;;8.72;100.00;69366.03;5092755;28;20047;-52
2024/03/21 05:30:20;;;;;;;6.22;3.85;;;;;;;8.63;100.00;69356.16;5093609;28;20044;-50
2024/03/21 05:32:46;;;;;;;7.95;4.20;;;;;;;8.55;100.00;69346.22;5076642;28;20396;-53
2024/03/21 05:35:13;;;;;;;7.07;3.97;;;;;;;8.51;100.00;69339.56;5091160;28;20495;-52
2024/03/21 05:37:39;;;;;;;6.40;4.18;;;;;;;8.48;100.00;69336.06;5090299;28;20044;-51
2024/03/21 05:40:08;;;;;;;6.72;4.07;;;;;;;8.48;100.00;69336.06;5092314;28;20542;-52
2024/03/21 05:42:34;;;;;;;8.25;4.30;;;;;;;8.44;100.00;69328.78;5093029;28;20044;-52
2024/03/21 05:45:01;;;;;;;7.18;4.70;;;;;;;8.43;100.00;69335.44;5076311;28;20047;-53
2024/03/21 05:47:28;;;;;;;9.88;4.95;;;;;;;8.43;100.00;69336.00;5092930;28;20040;-50
2024/03/21 05:49:55;;;;;;;8.85;5.22;;;;;;;8.40;100.00;69329.91;5093263;28;20063;-51
2024/03/21 05:52:22;;;;;;;9.93;5.68;;;;;;;8.39;100.00;69325.56;5093070;28;20039;-54
2024/03/21 05:54:49;;;;;;;8.40;5.63;;;;;;;8.42;100.00;69331.66;5093053;28;20055;-52
2024/03/21 05:57:17;;;;;;;9.18;6.10;;;;;;;8.41;100.00;69333.09;5093154;28;20052;-50
2024/03/21 05:59:44;;;;;;;9.05;6.00;;;;;;;8.43;100.00;69333.41;5093234;28;20040;-51
2024/03/21 06:02:10;;;;;;;10.93;7.72;;;;;;;8.42;100.00;69321.25;5093076;28;20048;-52
2024/03/21 06:04:39;;;;;;;13.60;8.13;;;;;;;8.38;100.00;69324.41;5075810;28;20052;-49
2024/03/21 06:07:05;;;;;;;10.88;7.68;;;;;;;8.40;100.00;69329.91;5076028;28;20048;-51
2024/03/21 06:09:32;;;;;;;12.55;8.32;;;;;;;8.44;100.00;69334.00;5075814;28;20048;-50
2024/03/21 06:11:58;;;;;;;11.90;7.60;;;;;;;8.43;100.00;69330.22;5089089;28;20117;-51
2024/03/21 06:14:26;;;;;;;11.65;8.15;;;;;;;8.48;100.00;69336.06;5072691;28;20059;-50
2024/03/21 06:16:52;;;;;;;12.60;7.70;;;;;;;8.44;100.00;69339.78;5092401;28;20134;-50
2024/03/21 06:19:19;;;;;;;10.40;5.82;;;;;;;8.45;100.00;69335.16;5092556;28;20039;-51
2024/03/21 06:21:47;;;;;;;8.98;5.13;;;;;;;8.37;100.00;69325.81;5092674;28;20107;-51
2024/03/21 06:24:14;;;;;;;10.05;4.85;;;;;;;8.29;100.00;69315.06;5092468;28;20044;-50
2024/03/21 06:26:40;;;;;;;11.07;4.80;;;;;;;8.23;100.00;69310.66;5092466;28;20047;-49
2024/03/21 06:29:07;;;;;;;7.40;4.15;;;;;;;8.23;100.00;69307.50;5092861;28;20387;-52
2024/03/21 06:31:33;;;;;;;8.45;4.05;;;;;;;8.20;100.00;69307.19;5092312;28;20044;-49
2024/03/21 06:34:03;;;;;;;10.63;4.10;;;;;;;8.20;100.00;69306.59;5089826;28;20047;-52
2024/03/21 06:36:29;;;;;;;8.68;3.45;;;;;;;8.16;100.00;69305.13;5088009;28;20044;-52
2024/03/21 06:38:59;;;;;;;8.10;3.65;;;;;;;8.07;100.00;69289.44;5073112;28;20044;-53
2024/03/21 06:41:25;;;;;;;6.75;3.03;;;;;;;8.07;100.00;69289.44;5089443;28;20059;-53
2024/03/21 06:43:52;;;;;;;9.20;3.08;;;;;;;8.02;100.00;69291.44;5089877;28;20073;-50
2024/03/21 06:46:19;;;;;;;7.05;2.90;;;;;;;7.99;100.00;69280.13;5092152;28;20044;-51
2024/03/21 06:48:46;;;;;;;7.00;2.80;;;;;;;7.98;100.00;69281.56;5092058;28;20052;-52
2024/03/21 06:51:12;;;;;;;4.82;2.42;;;;;;;8.00;100.00;69281.28;5071401;28;20442;-50
2024/03/21 06:53:39;;;;;;;6.93;2.65;;;;;;;7.95;100.00;69281.81;5088822;28;20051;-50
2024/03/21 06:56:07;;;;;;;5.45;2.40;;;;;;;7.92;100.00;69275.16;5091850;28;20036;-49
2024/03/21 06:58:35;;;;;;;6.70;2.60;;;;;;;7.91;100.00;69276.59;5092034;28;20055;-54
2024/03/21 07:01:01;;;;;;;6.95;2.58;;;;;;;7.90;100.00;69270.22;5091914;28;20040;-51
2024/03/21 07:03:28;;;;;;;6.30;2.40;;;;;;;7.90;100.00;69275.44;5089860;28;20050;-51
2024/03/21 07:05:56;;;;;;;6.72;2.50;;;;;;;7.91;100.00;69266.19;5087136;28;20042;-51
2024/03/21 07:08:23;;;;;;;8.52;2.90;;;;;;;7.93;100.00;69276.31;5091783;28;20070;-51
2024/03/21 07:10:51;;;;;;;7.05;2.38;;;;;;;7.97;100.00;69283.00;5091971;28;20456;-51
2024/03/21 07:13:20;;;;;;;7.95;2.17;;;;;;;7.96;100.00;69279.81;5091758;28;20526;-51
2024/03/21 07:15:46;;;;;;;7.50;2.15;;;;;;;8.00;100.00;69281.88;5091379;28;20139;-50
2024/03/21 07:18:14;;;;;;;6.38;2.35;;;;;;;8.03;100.00;69285.38;5091445;28;20138;-49
2024/03/21 07:20:40;;;;;;;8.80;2.10;;;;;;;8.03;100.00;69284.78;5091458;28;20036;-51
2024/03/21 07:23:08;;;;;;;5.20;1.67;;;;;;;8.01;100.00;69282.47;5091384;28;20127;-51
2024/03/21 07:25:35;;;;;;;7.82;2.35;;;;;;;8.02;100.00;69289.41;5074228;28;20154;-52
2024/03/21 07:28:02;;;;;;;5.65;1.77;;;;;;;8.06;100.00;69288.88;5091338;28;20040;-50
2024/03/21 07:30:30;;;;;;;8.90;1.63;;;;;;;8.07;100.00;69292.63;5091267;28;20075;-50
2024/03/21 07:32:57;;;;;;;5.40;1.67;;;;;;;8.08;100.00;69295.81;5091316;28;20039;-52
2024/03/21 07:35:23;;;;;;;4.70;1.48;;;;;;;8.13;100.00;69297.00;5091031;28;20542;-53
2024/03/21 07:37:51;;;;;;;7.45;1.60;;;;;;;8.17;100.00;69297.91;5091188;28;20048;-51
2024/03/21 07:40:17;;;;;;;7.28;1.88;;;;;;;8.17;100.00;69306.28;5089875;28;20036;-51
2024/03/21 07:42:44;;;;;;;7.43;1.50;;;;;;;8.19;100.00;69306.00;5088062;28;20052;-50
2024/03/21 07:45:11;;;;;;;8.10;1.95;;;;;;;8.16;100.00;69301.94;5087652;28;20063;-51
2024/03/21 07:47:40;;;;;;;6.82;1.60;;;;;;;8.19;100.00;69300.25;5073624;28;20044;-51
2024/03/21 07:50:09;;;;;;;8.82;1.65;;;;;;;8.13;100.00;69294.41;5086111;28;20517;-52
2024/03/21 07:52:36;;;;;;;6.97;1.60;;;;;;;8.15;100.00;69301.34;5086998;28;20064;-51
2024/03/21 07:55:03;;;;;;;7.93;1.35;;;;;;;8.24;100.00;69308.66;5087266;28;20044;-53
2024/03/21 07:57:32;;;;;;;5.40;1.50;;;;;;;8.29;100.00;69319.69;5087994;28;20043;-50
2024/03/21 08:00:00;;;;;;;8.23;2.20;;;;;;;8.22;100.00;69312.13;5089965;28;20044;-51
2024/03/21 08:02:27;;;;;;;7.65;1.52;;;;;;;8.29;100.00;69317.69;5090508;28;20082;-50
2024/03/21 08:04:55;;;;;;;6.85;1.40;;;;;;;8.29;100.00;69317.69;5089688;28;20067;-52
2024/03/21 08:07:22;;;;;;;7.32;1.52;;;;;;;8.32;100.00;69320.59;5086946;28;20042;-53
2024/03/21 08:09:48;;;;;;;7.25;1.48;;;;;;;8.41;100.00;69330.47;5089216;28;20414;-51
2024/03/21 08:12:15;;;;;;;9.15;1.80;;;;;;;8.48;100.00;69338.69;5090522;28;20592;-50
2024/03/21 08:14:42;;;;;;;8.50;1.60;;;;;;;8.51;100.00;69344.78;5090287;28;20108;-52
2024/03/21 08:17:09;;;;;;;6.07;1.40;;;;;;;8.58;100.00;69350.31;5090177;28;20128;-51
2024/03/21 08:19:35;;;;;;;7.45;1.40;;;;;;;8.70;100.00;69366.31;5087112;28;20047;-51
2024/03/21 08:22:03;;;;;;;7.40;1.63;;;;;;;8.71;100.00;69366.91;5068925;28;20050;-50
2024/03/21 08:24:30;;;;;;;11.35;1.73;;;;;;;8.78;100.00;69373.06;5104505;28;20033;-51
2024/03/21 08:26:59;;;;;;;7.80;1.60;;;;;;;8.85;100.00;69377.44;5089548;28;20083;-52
2024/03/21 08:29:25;;;;;;;7.53;1.65;;;;;;;8.85;100.00;69382.63;5090348;28;20043;-51
2024/03/21 08:31:53;;;;;;;5.03;1.25;;;;;;;8.87;100.00;69382.94;5090499;28;20414;-50
2024/03/21 08:34:19;;;;;;;8.90;1.73;;;;;;;8.92;100.00;69386.19;5090481;28;20495;-50
2024/03/21 08:36:46;;;;;;;7.18;1.23;;;;;;;8.99;100.00;69393.75;5073515;28;20419;-52
2024/03/21 08:39:13;;;;;;;7.80;1.50;;;;;;;9.11;100.00;69407.75;5090329;28;20139;-53
2024/03/21 08:41:40;;;;;;;6.75;1.30;;;;;;;9.20;100.00;69419.69;5090065;28;20458;-53
2024/03/21 08:44:07;;;;;;;9.45;1.85;;;;;;;9.28;100.00;69429.59;5089862;28;20059;-52
2024/03/21 08:46:34;;;;;;;9.18;2.10;;;;;;;9.23;100.00;69425.78;5087045;28;20044;-54
2024/03/21 08:49:00;;;;;;;8.48;1.73;;;;;;;9.24;100.00;69424.94;5088291;28;20044;-54
2024/03/21 08:51:27;;;;;;;10.20;1.80;;;;;;;9.26;100.00;69424.66;5090074;28;20084;-51
2024/03/21 08:53:53;;;;;;;5.45;1.50;;;;;;;9.29;100.00;69430.16;5090139;28;20032;-51
2024/03/21 08:56:22;;;;;;;6.65;1.50;;;;;;;9.39;100.00;69438.63;5090009;28;20581;-51
2024/03/21 08:58:51;;;;;;;8.30;1.52;;;;;;;9.48;100.00;69449.72;5106680;28;20043;-53
2024/03/21 09:01:18;;;;;;;6.97;1.90;;;;;;;9.54;100.00;69456.13;5091207;28;20101;-52
2024/03/21 09:03:44;;;;;;;8.27;1.85;;;;;;;9.59;100.00;69461.38;5092418;28;20250;-52
2024/03/21 09:06:11;;;;;;;9.32;2.10;;;;;;;9.64;100.00;69467.81;5090120;28;20115;-50
2024/03/21 09:08:37;;;;;;;6.07;1.60;;;;;;;9.74;100.00;69476.25;5092592;28;20090;-53
2024/03/21 09:11:05;;;;;;;6.75;1.63;;;;;;;9.80;100.00;69488.50;5093989;28;20051;-51
2024/03/21 09:13:32;;;;;;;6.68;1.88;;;;;;;9.93;100.00;69502.50;5093230;28;20054;-52
2024/03/21 09:16:00;;;;;;;5.75;1.52;;;;;;;10.02;100.00;69507.19;5090506;28;20051;-49
2024/03/21 09:18:27;;;;;;;8.40;1.65;;;;;;;10.09;100.00;69520.56;5091335;28;20186;-51
2024/03/21 09:20:55;;;;;;;5.55;1.40;;;;;;;10.18;100.00;69530.47;5089492;28;20107;-51
2024/03/21 09:23:22;;;;;;;5.40;1.40;;;;;;;10.09;100.00;69515.94;5093473;28;20048;-52
2024/03/21 09:25:49;;;;;;;5.38;1.40;;;;;;;10.24;100.00;69537.47;5076471;28;20055;-51
2024/03/21 09:28:15;;;;;;;7.45;1.65;;;;;;;10.30;100.00;69544.47;5093679;28;20423;-52
2024/03/21 09:30:47;;;;;;;6.63;1.63;;;;;;;10.44;100.00;69560.25;5093719;28;20062;-53
2024/03/21 09:33:13;;;;;;;8.55;1.70;;;;;;;10.54;100.00;69563.50;5093605;28;20501;-53
2024/03/21 09:35:41;;;;;;;8.25;1.80;;;;;;;10.64;100.00;69581.00;5093345;28;20050;-53
2024/03/21 09:38:07;;;;;;;6.90;1.63;;;;;;;10.69;100.00;69583.66;5090184;28;20044;-52
2024/03/21 09:40:34;;;;;;;7.32;1.60;;;;;;;10.72;100.00;69591.78;5090316;28;20487;-53
2024/03/21 09:43:03;;;;;;;7.10;1.58;;;;;;;10.87;100.00;69608.72;5090370;28;20082;-53
2024/03/21 09:45:33;;;;;;;9.38;2.08;;;;;;;10.93;100.00;69615.72;5089828;28;20040;-51
2024/03/21 09:48:01;;;;;;;12.05;2.33;;;;;;;10.83;100.00;69604.63;5089595;28;20139;-53
2024/03/21 09:50:28;;;;;;;6.35;1.95;;;;;;;10.95;100.00;69615.44;5088816;28;20040;-54
2024/03/21 09:52:54;;;;;;;8.35;2.33;;;;;;;11.05;100.00;69626.53;5089580;28;20866;-53
2024/03/21 09:55:22;;;;;;;8.05;1.80;;;;;;;11.22;100.00;69646.38;5072859;28;20040;-54
2024/03/21 09:57:49;;;;;;;8.30;2.08;;;;;;;11.27;100.00;69654.81;5089367;28;20058;-54
2024/03/21 10:00:17;;;;;;;8.80;2.30;;;;;;;11.45;100.00;69664.22;5091213;28;20098;-54
2024/03/21 10:02:44;;;;;;;6.38;1.80;;;;;;;11.62;100.00;69693.97;5090553;28;20487;-54
2024/03/21 10:05:23;;;;;;;7.28;2.10;;;;;;;11.71;100.00;69706.50;5089109;28;20550;-53
2024/03/21 10:07:49;;;;;;;6.93;1.90;;;;;;;11.76;100.00;69705.06;5092246;28;20044;-52
2024/03/21 10:10:17;;;;;;;8.02;2.15;;;;;;;11.94;100.00;69722.31;5090016;28;20081;-53
2024/03/21 10:12:45;;;;;;;8.38;2.03;;;;;;;12.17;100.00;69756.47;5089301;28;20341;-50
2024/03/21 10:15:12;;;;;;;6.75;1.90;;;;;;;12.31;100.00;69770.25;5089176;28;20468;-52
2024/03/21 10:17:39;;;;;;;6.45;1.70;;;;;;;12.51;100.00;69795.63;5089603;28;20471;-54
2024/03/21 10:20:09;;;;;;;10.75;2.10;;;;;;;12.56;100.00;69795.66;5092144;28;20449;-53
2024/03/21 10:22:43;;;;;;;6.38;2.20;;;;;;;12.42;100.00;69779.91;5092445;28;20052;-53
2024/03/21 10:25:14;;;;;;;7.18;2.70;;;;;;;12.54;100.00;69792.75;5092654;28;20527;-54
2024/03/21 10:27:42;;;;;;;6.80;1.90;;;;;;;12.75;100.00;69819.91;5090327;28;20044;-54
2024/03/21 10:30:19;;;;;;;8.18;2.45;;;;;;;12.82;100.00;69827.50;5089289;28;20062;-54
2024/03/21 10:32:46;;;;;;;5.80;2.10;;;;;;;13.08;100.00;69857.31;5092418;28;20052;-53
2024/03/21 10:35:16;;;;;;;8.23;2.78;;;;;;;13.03;100.00;69848.84;5092961;28;20036;-53
2024/03/21 10:37:44;;;;;;;9.00;2.72;;;;;;;13.14;100.00;69863.75;5088490;28;20471;-52
2024/03/21 10:40:14;;;;;;;12.13;2.65;;;;;;;13.19;100.00;69867.56;5088443;28;20499;-53
2024/03/21 10:42:45;;;;;;;9.20;2.47;;;;;;;13.34;100.00;69879.28;5088860;28;20044;-54
2024/03/21 10:45:16;;;;;;;7.05;2.30;;;;;;;13.55;100.00;69909.97;5088487;28;20051;-52
2024/03/21 10:47:47;;;;;;;6.75;2.58;;;;;;;13.68;100.00;69922.56;5088570;28;20798;-54
2024/03/21 10:50:21;;;;;;;6.65;2.40;;;;;;;13.81;100.00;69942.44;5087677;28;20135;-54
2024/03/21 10:52:53;;;;;;;5.90;2.28;;;;;;;14.06;100.00;69967.88;5088161;28;20036;-54
2024/03/21 10:55:21;;;;;;;7.45;2.38;;;;;;;14.09;100.00;69971.41;5088823;28;20495;-52
2024/03/21 10:57:54;;;;;;;7.07;2.20;;;;;;;14.10;100.00;69970.53;5088503;28;20058;-54
2024/03/21 11:00:22;;;;;;;8.05;2.67;;;;;;;14.27;100.00;69989.28;5088703;28;20065;-54
2024/03/21 11:02:53;;;;;;;6.82;2.38;;;;;;;14.65;100.00;70032.59;5090463;28;20117;-52
2024/03/21 11:05:25;;;;;;;6.82;2.08;;;;;;;14.87;100.00;70060.41;5091589;28;20032;-54
2024/03/21 11:07:57;;;;;;;6.68;2.20;;;;;;;15.26;100.00;70101.72;5091484;28;20051;-52
2024/03/21 11:10:23;;;;;;;7.53;2.25;;;;;;;15.43;100.00;70124.22;5091956;28;20044;-56
2024/03/21 11:12:51;;;;;;;8.93;2.30;;;;;;;15.59;100.00;70139.19;5091277;28;20071;-53
2024/03/21 11:15:17;;;;;;;7.97;2.53;;;;;;;15.77;100.00;70160.25;5091259;28;20499;-53
2024/03/21 11:17:44;;;;;;;8.95;2.67;;;;;;;15.93;100.00;70178.47;5091359;28;20054;-54
2024/03/21 11:20:13;;;;;;;9.88;1.90;;;;;;;16.04;100.00;70190.75;5086915;28;20052;-55
2024/03/21 11:22:44;;;;;;;8.05;2.08;;;;;;;15.73;100.00;70155.56;5087932;28;20044;-51
2024/03/21 11:25:12;;;;;;;5.25;1.83;;;;;;;15.97;100.00;70182.56;5086709;28;20036;-54